Wright-Patterson Air Force Base (FFO)

 

Airport Diagram
Current Weather/Forecast (VFR Conditions)
METAR KFFO 182156Z 31008KT 10SM SCT250 16/M04 A2987 RMK AO2A SLP120 T01641037
TAF TAF KFFO 181901Z 1819/2001 28012KT 9999 FEW090 SCT200 QNH2985INS WND VRB06KT AFT 1823 TEMPO 1910/1912 9000 BR BECMG 1917/1918 25012G18KT 9999 BKN060 QNH2983INS BECMG 1923/1924 34012KT 9999 BKN035 QNH2985INS TX16/1821Z TN05/1911Z

Airport Information

All Charts
General
Chart Name View
AIRPORT DIAGRAM
AIRPORT DIAGRAM
TAKEOFF MINIMUMS
TAKEOFF MINIMUMS

Arrivals
Chart Name Download
DANEI THREE
KEKEE FOUR
DANEI THREE
KEKEE FOUR

Approaches
Chart Name Download
ILS OR LOC RWY 05L
ILS OR LOC RWY 23R
RNAV (GPS) RWY 05L
RNAV (GPS) RWY 05R
RNAV (GPS) RWY 23L
RNAV (GPS) RWY 23R
TACAN RWY 05L
TACAN RWY 05R
TACAN RWY 23L
TACAN RWY 23R
ILS OR LOC RWY 05L
ILS OR LOC RWY 23R
RNAV (GPS) RWY 05L
RNAV (GPS) RWY 05R
RNAV (GPS) RWY 23L
RNAV (GPS) RWY 23R
TACAN RWY 05L
TACAN RWY 05R
TACAN RWY 23L
TACAN RWY 23R


Airport Statistics
Departures Arrivals Local
All Collected Stats since June 2016: 68 58 4
2021 Stats: 7 5 0
April Stats: 0 1 0

Inbound Traffic (Arrivals) - 0

No inbound traffic.


Outbound Traffic (Departures) - 0

No outbound traffic.


Local Traffic (Pattern) - 0

No local traffic.